sensor_id;sensor_type;location;lat;lon;timestamp;pressure;altitude;pressure_sealevel;temperature;humidity
18275;BME280;19470;49.322;7.218;2023-04-28T00:02:19;98444.66;;;17.03;100.00
18275;BME280;19470;49.322;7.218;2023-04-28T00:04:47;98434.75;;;17.03;100.00
18275;BME280;19470;49.322;7.218;2023-04-28T00:07:13;98435.75;;;16.89;100.00
18275;BME280;19470;49.322;7.218;2023-04-28T00:09:40;98440.47;;;16.97;100.00
18275;BME280;19470;49.322;7.218;2023-04-28T00:12:06;98439.06;;;16.38;100.00
18275;BME280;19470;49.322;7.218;2023-04-28T00:14:33;98437.19;;;16.14;100.00
18275;BME280;19470;49.322;7.218;2023-04-28T00:16:59;98421.81;;;16.49;100.00
18275;BME280;19470;49.322;7.218;2023-04-28T00:19:27;98421.97;;;17.00;100.00
18275;BME280;19470;49.322;7.218;2023-04-28T00:21:55;98419.84;;;16.78;100.00
18275;BME280;19470;49.322;7.218;2023-04-28T00:24:22;98423.63;;;16.77;100.00
18275;BME280;19470;49.322;7.218;2023-04-28T00:26:48;98417.25;;;17.11;100.00
18275;BME280;19470;49.322;7.218;2023-04-28T00:29:15;98423.16;;;16.70;100.00
18275;BME280;19470;49.322;7.218;2023-04-28T00:31:41;98422.91;;;16.48;100.00
18275;BME280;19470;49.322;7.218;2023-04-28T00:34:08;98430.72;;;15.91;100.00
18275;BME280;19470;49.322;7.218;2023-04-28T00:36:38;98420.69;;;16.31;100.00
18275;BME280;19470;49.322;7.218;2023-04-28T00:39:06;98410.31;;;17.10;100.00
18275;BME280;19470;49.322;7.218;2023-04-28T00:41:33;98424.28;;;16.64;100.00
18275;BME280;19470;49.322;7.218;2023-04-28T00:44:00;98417.69;;;16.99;100.00
18275;BME280;19470;49.322;7.218;2023-04-28T00:46:29;98413.94;;;16.81;100.00
18275;BME280;19470;49.322;7.218;2023-04-28T00:48:56;98412.84;;;17.20;100.00
18275;BME280;19470;49.322;7.218;2023-04-28T00:51:23;98406.31;;;16.89;100.00
18275;BME280;19470;49.322;7.218;2023-04-28T00:53:50;98399.84;;;17.14;100.00
18275;BME280;19470;49.322;7.218;2023-04-28T00:56:17;98403.88;;;16.92;100.00
18275;BME280;19470;49.322;7.218;2023-04-28T00:58:45;98395.28;;;17.14;100.00
18275;BME280;19470;49.322;7.218;2023-04-28T01:01:11;98388.81;;;17.15;100.00
18275;BME280;19470;49.322;7.218;2023-04-28T01:03:39;98377.34;;;17.47;100.00
18275;BME280;19470;49.322;7.218;2023-04-28T01:06:07;98355.53;;;17.54;100.00
18275;BME280;19470;49.322;7.218;2023-04-28T01:08:35;98384.22;;;16.83;100.00
18275;BME280;19470;49.322;7.218;2023-04-28T01:11:02;98398.63;;;16.63;100.00
18275;BME280;19470;49.322;7.218;2023-04-28T01:13:30;98396.72;;;16.45;100.00
18275;BME280;19470;49.322;7.218;2023-04-28T01:15:56;98399.75;;;16.38;100.00
18275;BME280;19470;49.322;7.218;2023-04-28T01:21:45;98379.59;;;16.89;100.00
18275;BME280;19470;49.322;7.218;2023-04-28T01:24:13;98381.28;;;16.84;100.00
18275;BME280;19470;49.322;7.218;2023-04-28T01:26:39;98391.66;;;15.37;100.00
18275;BME280;19470;49.322;7.218;2023-04-28T01:29:06;98397.13;;;16.09;100.00
18275;BME280;19470;49.322;7.218;2023-04-28T01:31:32;98390.09;;;16.85;100.00
18275;BME280;19470;49.322;7.218;2023-04-28T01:33:59;98377.41;;;17.09;100.00
18275;BME280;19470;49.322;7.218;2023-04-28T01:36:25;98378.66;;;16.36;100.00
18275;BME280;19470;49.322;7.218;2023-04-28T01:38:52;98392.78;;;16.61;100.00
18275;BME280;19470;49.322;7.218;2023-04-28T01:41:20;98373.81;;;16.81;100.00
18275;BME280;19470;49.322;7.218;2023-04-28T01:43:47;98376.84;;;16.94;100.00
18275;BME280;19470;49.322;7.218;2023-04-28T01:49:35;98396.31;;;16.80;100.00
18275;BME280;19470;49.322;7.218;2023-04-28T01:52:02;98390.88;;;17.04;100.00
18275;BME280;19470;49.322;7.218;2023-04-28T01:54:28;98383.00;;;16.94;100.00
18275;BME280;19470;49.322;7.218;2023-04-28T01:56:56;98398.78;;;16.53;100.00
18275;BME280;19470;49.322;7.218;2023-04-28T01:59:22;98392.47;;;16.44;100.00
18275;BME280;19470;49.322;7.218;2023-04-28T02:01:49;98398.53;;;16.49;100.00
18275;BME280;19470;49.322;7.218;2023-04-28T02:04:15;98402.81;;;15.78;100.00
18275;BME280;19470;49.322;7.218;2023-04-28T02:06:42;98389.34;;;16.36;100.00
18275;BME280;19470;49.322;7.218;2023-04-28T02:09:08;98400.34;;;16.11;100.00
18275;BME280;19470;49.322;7.218;2023-04-28T02:11:35;98394.66;;;16.84;100.00
18275;BME280;19470;49.322;7.218;2023-04-28T02:14:03;98395.78;;;16.97;100.00
18275;BME280;19470;49.322;7.218;2023-04-28T02:16:29;98389.22;;;16.90;100.00
18275;BME280;19470;49.322;7.218;2023-04-28T02:18:57;98381.69;;;16.92;100.00
18275;BME280;19470;49.322;7.218;2023-04-28T02:21:23;98373.34;;;17.12;100.00
18275;BME280;19470;49.322;7.218;2023-04-28T02:23:50;98375.28;;;16.69;100.00
18275;BME280;19470;49.322;7.218;2023-04-28T02:26:17;98367.78;;;16.52;100.00
18275;BME280;19470;49.322;7.218;2023-04-28T02:28:43;98347.41;;;16.94;100.00
18275;BME280;19470;49.322;7.218;2023-04-28T02:31:11;98352.63;;;16.66;100.00
18275;BME280;19470;49.322;7.218;2023-04-28T02:33:38;98346.13;;;16.72;100.00
18275;BME280;19470;49.322;7.218;2023-04-28T02:36:07;98342.94;;;17.08;100.00
18275;BME280;19470;49.322;7.218;2023-04-28T02:38:34;98342.38;;;17.25;100.00
18275;BME280;19470;49.322;7.218;2023-04-28T02:41:02;98346.25;;;16.62;100.00
18275;BME280;19470;49.322;7.218;2023-04-28T02:43:29;98352.31;;;16.49;100.00
18275;BME280;19470;49.322;7.218;2023-04-28T02:45:56;98331.16;;;16.90;100.00
18275;BME280;19470;49.322;7.218;2023-04-28T02:48:24;98334.19;;;17.02;100.00
18275;BME280;19470;49.322;7.218;2023-04-28T02:50:51;98330.59;;;17.26;100.00
18275;BME280;19470;49.322;7.218;2023-04-28T02:53:18;98316.59;;;17.15;100.00
18275;BME280;19470;49.322;7.218;2023-04-28T02:55:44;98330.38;;;16.90;100.00
18275;BME280;19470;49.322;7.218;2023-04-28T02:58:11;98330.88;;;16.73;100.00
18275;BME280;19470;49.322;7.218;2023-04-28T03:00:38;98338.00;;;16.58;100.00
18275;BME280;19470;49.322;7.218;2023-04-28T03:03:04;98329.22;;;16.96;100.00
18275;BME280;19470;49.322;7.218;2023-04-28T03:05:32;98335.03;;;16.60;100.00
18275;BME280;19470;49.322;7.218;2023-04-28T03:07:59;98342.47;;;16.25;100.00
18275;BME280;19470;49.322;7.218;2023-04-28T03:10:25;98339.25;;;16.47;100.00
18275;BME280;19470;49.322;7.218;2023-04-28T03:12:52;98340.69;;;16.58;100.00
18275;BME280;19470;49.322;7.218;2023-04-28T03:15:18;98338.06;;;17.10;100.00
18275;BME280;19470;49.322;7.218;2023-04-28T03:17:45;98324.00;;;17.04;100.00
18275;BME280;19470;49.322;7.218;2023-04-28T03:20:12;98318.00;;;17.26;100.00
18275;BME280;19470;49.322;7.218;2023-04-28T03:22:39;98312.19;;;17.38;100.00
18275;BME280;19470;49.322;7.218;2023-04-28T03:25:07;98316.72;;;16.91;100.00
18275;BME280;19470;49.322;7.218;2023-04-28T03:27:33;98304.28;;;16.63;100.00
18275;BME280;19470;49.322;7.218;2023-04-28T03:30:00;98305.47;;;17.08;100.00
18275;BME280;19470;49.322;7.218;2023-04-28T03:32:26;98307.28;;;17.13;100.00
18275;BME280;19470;49.322;7.218;2023-04-28T03:34:53;98298.81;;;16.73;100.00
18275;BME280;19470;49.322;7.218;2023-04-28T03:37:19;98303.03;;;16.55;100.00
18275;BME280;19470;49.322;7.218;2023-04-28T03:39:47;98306.44;;;16.79;100.00
18275;BME280;19470;49.322;7.218;2023-04-28T03:42:14;98292.06;;;17.27;100.00
18275;BME280;19470;49.322;7.218;2023-04-28T03:44:40;98293.22;;;17.21;100.00
18275;BME280;19470;49.322;7.218;2023-04-28T03:47:06;98290.94;;;17.14;100.00
18275;BME280;19470;49.322;7.218;2023-04-28T03:49:33;98284.47;;;16.64;100.00
18275;BME280;19470;49.322;7.218;2023-04-28T03:52:00;98274.66;;;16.40;100.00
18275;BME280;19470;49.322;7.218;2023-04-28T03:54:28;98281.06;;;16.96;100.00
18275;BME280;19470;49.322;7.218;2023-04-28T03:56:56;98266.19;;;16.90;100.00
18275;BME280;19470;49.322;7.218;2023-04-28T03:59:23;98271.19;;;17.10;100.00
18275;BME280;19470;49.322;7.218;2023-04-28T04:01:51;98277.25;;;16.64;100.00
18275;BME280;19470;49.322;7.218;2023-04-28T04:04:17;98274.44;;;17.07;100.00
18275;BME280;19470;49.322;7.218;2023-04-28T04:06:44;98273.47;;;16.65;100.00
18275;BME280;19470;49.322;7.218;2023-04-28T04:09:11;98274.75;;;16.73;100.00
18275;BME280;19470;49.322;7.218;2023-04-28T04:11:37;98265.72;;;17.01;100.00
18275;BME280;19470;49.322;7.218;2023-04-28T04:14:05;98265.84;;;16.40;100.00
18275;BME280;19470;49.322;7.218;2023-04-28T04:16:32;98266.94;;;16.76;100.00
18275;BME280;19470;49.322;7.218;2023-04-28T04:18:58;98265.63;;;16.74;100.00
18275;BME280;19470;49.322;7.218;2023-04-28T04:21:24;98260.06;;;16.51;100.00
18275;BME280;19470;49.322;7.218;2023-04-28T04:23:52;98264.25;;;16.76;100.00
18275;BME280;19470;49.322;7.218;2023-04-28T04:26:18;98267.63;;;17.15;100.00
18275;BME280;19470;49.322;7.218;2023-04-28T04:28:45;98274.13;;;16.95;100.00
18275;BME280;19470;49.322;7.218;2023-04-28T04:31:13;98265.63;;;17.06;100.00
18275;BME280;19470;49.322;7.218;2023-04-28T04:33:39;98262.81;;;16.98;100.00
18275;BME280;19470;49.322;7.218;2023-04-28T04:36:06;98264.47;;;16.61;100.00
18275;BME280;19470;49.322;7.218;2023-04-28T04:38:33;98256.22;;;17.09;100.00
18275;BME280;19470;49.322;7.218;2023-04-28T04:40:59;98257.75;;;17.43;100.00
18275;BME280;19470;49.322;7.218;2023-04-28T04:43:26;98246.97;;;17.48;100.00
18275;BME280;19470;49.322;7.218;2023-04-28T04:45:52;98250.59;;;17.24;100.00
18275;BME280;19470;49.322;7.218;2023-04-28T04:48:20;98253.47;;;16.81;100.00
18275;BME280;19470;49.322;7.218;2023-04-28T04:50:47;98257.31;;;16.56;100.00
18275;BME280;19470;49.322;7.218;2023-04-28T04:53:14;98251.38;;;16.78;100.00
18275;BME280;19470;49.322;7.218;2023-04-28T04:55:40;98244.78;;;17.22;100.00
18275;BME280;19470;49.322;7.218;2023-04-28T04:58:07;98243.09;;;16.94;100.00
18275;BME280;19470;49.322;7.218;2023-04-28T05:00:34;98246.69;;;16.70;100.00
18275;BME280;19470;49.322;7.218;2023-04-28T05:03:01;98240.63;;;16.97;100.00
18275;BME280;19470;49.322;7.218;2023-04-28T05:05:31;98237.75;;;16.61;100.00
18275;BME280;19470;49.322;7.218;2023-04-28T05:07:59;98244.31;;;16.50;100.00
18275;BME280;19470;49.322;7.218;2023-04-28T05:10:32;98250.09;;;16.76;100.00
18275;BME280;19470;49.322;7.218;2023-04-28T05:16:20;98246.63;;;16.56;100.00
18275;BME280;19470;49.322;7.218;2023-04-28T05:18:47;98247.69;;;16.74;100.00
18275;BME280;19470;49.322;7.218;2023-04-28T05:21:14;98250.19;;;17.03;100.00
18275;BME280;19470;49.322;7.218;2023-04-28T05:23:41;98256.72;;;17.11;100.00
18275;BME280;19470;49.322;7.218;2023-04-28T05:26:07;98249.78;;;17.10;100.00
18275;BME280;19470;49.322;7.218;2023-04-28T05:28:35;98249.31;;;17.08;100.00
18275;BME280;19470;49.322;7.218;2023-04-28T05:31:02;98247.03;;;17.15;100.00
18275;BME280;19470;49.322;7.218;2023-04-28T05:33:28;98241.19;;;17.13;100.00
18275;BME280;19470;49.322;7.218;2023-04-28T05:35:55;98242.13;;;16.90;100.00
18275;BME280;19470;49.322;7.218;2023-04-28T05:38:23;98245.53;;;17.09;100.00
18275;BME280;19470;49.322;7.218;2023-04-28T05:40:49;98242.44;;;17.02;100.00
18275;BME280;19470;49.322;7.218;2023-04-28T05:43:16;98242.53;;;16.97;100.00
18275;BME280;19470;49.322;7.218;2023-04-28T05:45:42;98242.69;;;16.86;100.00
18275;BME280;19470;49.322;7.218;2023-04-28T05:48:09;98245.25;;;17.24;100.00
18275;BME280;19470;49.322;7.218;2023-04-28T05:50:35;98254.88;;;16.93;100.00
18275;BME280;19470;49.322;7.218;2023-04-28T05:53:02;98249.88;;;17.05;100.00
18275;BME280;19470;49.322;7.218;2023-04-28T05:55:31;98254.31;;;16.96;100.00
18275;BME280;19470;49.322;7.218;2023-04-28T05:57:58;98253.28;;;17.24;100.00
18275;BME280;19470;49.322;7.218;2023-04-28T06:00:24;98257.16;;;17.32;100.00
18275;BME280;19470;49.322;7.218;2023-04-28T06:02:51;98251.81;;;17.59;100.00
18275;BME280;19470;49.322;7.218;2023-04-28T06:05:17;98257.34;;;17.35;100.00
18275;BME280;19470;49.322;7.218;2023-04-28T06:07:44;98258.97;;;17.36;100.00
18275;BME280;19470;49.322;7.218;2023-04-28T06:10:10;98256.53;;;17.21;100.00
18275;BME280;19470;49.322;7.218;2023-04-28T06:12:39;98260.47;;;16.96;100.00
18275;BME280;19470;49.322;7.218;2023-04-28T06:15:06;98257.34;;;16.75;100.00
18275;BME280;19470;49.322;7.218;2023-04-28T06:17:32;98266.78;;;16.86;100.00
18275;BME280;19470;49.322;7.218;2023-04-28T06:19:59;98272.00;;;17.24;100.00
18275;BME280;19470;49.322;7.218;2023-04-28T06:22:25;98266.94;;;17.09;100.00
18275;BME280;19470;49.322;7.218;2023-04-28T06:24:52;98259.75;;;17.37;100.00
18275;BME280;19470;49.322;7.218;2023-04-28T06:27:18;98264.22;;;17.55;100.00
18275;BME280;19470;49.322;7.218;2023-04-28T06:29:46;98268.69;;;17.60;100.00
18275;BME280;19470;49.322;7.218;2023-04-28T06:32:13;98270.72;;;17.22;100.00
18275;BME280;19470;49.322;7.218;2023-04-28T06:34:39;98263.91;;;17.57;100.00
18275;BME280;19470;49.322;7.218;2023-04-28T06:37:06;98256.56;;;17.49;100.00
18275;BME280;19470;49.322;7.218;2023-04-28T06:39:32;98262.78;;;17.17;100.00
18275;BME280;19470;49.322;7.218;2023-04-28T06:41:59;98261.44;;;17.33;100.00
18275;BME280;19470;49.322;7.218;2023-04-28T06:44:26;98256.38;;;17.73;100.00
18275;BME280;19470;49.322;7.218;2023-04-28T06:46:54;98264.84;;;17.94;100.00
18275;BME280;19470;49.322;7.218;2023-04-28T06:49:20;98265.72;;;18.03;100.00
18275;BME280;19470;49.322;7.218;2023-04-28T06:51:47;98268.81;;;18.32;100.00
18275;BME280;19470;49.322;7.218;2023-04-28T06:54:13;98268.97;;;18.50;100.00
18275;BME280;19470;49.322;7.218;2023-04-28T06:56:40;98262.50;;;18.51;100.00
18275;BME280;19470;49.322;7.218;2023-04-28T06:59:07;98264.03;;;18.43;100.00
18275;BME280;19470;49.322;7.218;2023-04-28T07:01:33;98265.66;;;18.30;100.00
18275;BME280;19470;49.322;7.218;2023-04-28T07:04:01;98257.56;;;18.67;100.00
18275;BME280;19470;49.322;7.218;2023-04-28T07:06:28;98264.22;;;18.47;100.00
18275;BME280;19470;49.322;7.218;2023-04-28T07:08:56;98265.59;;;18.44;100.00
18275;BME280;19470;49.322;7.218;2023-04-28T07:11:22;98266.84;;;18.24;100.00
18275;BME280;19470;49.322;7.218;2023-04-28T07:13:49;98272.38;;;18.42;100.00
18275;BME280;19470;49.322;7.218;2023-04-28T07:16:16;98273.31;;;18.59;100.00
18275;BME280;19470;49.322;7.218;2023-04-28T07:18:43;98271.75;;;18.58;100.00
18275;BME280;19470;49.322;7.218;2023-04-28T07:21:11;98273.28;;;18.73;100.00
18275;BME280;19470;49.322;7.218;2023-04-28T07:23:37;98273.91;;;18.56;100.00
18275;BME280;19470;49.322;7.218;2023-04-28T07:26:05;98273.59;;;18.35;100.00
18275;BME280;19470;49.322;7.218;2023-04-28T07:28:32;98276.66;;;18.65;100.00
18275;BME280;19470;49.322;7.218;2023-04-28T07:30:59;98273.97;;;18.79;100.00
18275;BME280;19470;49.322;7.218;2023-04-28T07:33:25;98273.91;;;18.93;100.00
18275;BME280;19470;49.322;7.218;2023-04-28T07:35:52;98280.06;;;18.57;100.00
18275;BME280;19470;49.322;7.218;2023-04-28T07:38:20;98288.56;;;19.18;100.00
18275;BME280;19470;49.322;7.218;2023-04-28T07:40:46;98282.41;;;19.17;100.00
18275;BME280;19470;49.322;7.218;2023-04-28T07:43:13;98273.03;;;19.37;100.00
18275;BME280;19470;49.322;7.218;2023-04-28T07:45:40;98274.59;;;19.38;100.00
18275;BME280;19470;49.322;7.218;2023-04-28T07:48:06;98272.09;;;19.41;100.00
18275;BME280;19470;49.322;7.218;2023-04-28T07:50:33;98278.22;;;19.33;100.00
18275;BME280;19470;49.322;7.218;2023-04-28T07:53:00;98273.34;;;19.35;100.00
18275;BME280;19470;49.322;7.218;2023-04-28T07:55:28;98278.16;;;18.94;100.00
18275;BME280;19470;49.322;7.218;2023-04-28T07:57:56;98277.44;;;19.02;100.00
18275;BME280;19470;49.322;7.218;2023-04-28T08:00:23;98285.66;;;19.36;100.00
18275;BME280;19470;49.322;7.218;2023-04-28T08:02:49;98284.44;;;19.11;100.00
18275;BME280;19470;49.322;7.218;2023-04-28T08:05:16;98282.97;;;19.05;100.00
18275;BME280;19470;49.322;7.218;2023-04-28T08:07:42;98287.19;;;18.98;100.00
18275;BME280;19470;49.322;7.218;2023-04-28T08:10:10;98295.25;;;19.29;100.00
18275;BME280;19470;49.322;7.218;2023-04-28T08:12:38;98285.06;;;19.39;100.00
18275;BME280;19470;49.322;7.218;2023-04-28T08:15:05;98281.81;;;18.75;100.00
18275;BME280;19470;49.322;7.218;2023-04-28T08:17:32;98293.53;;;18.79;100.00
18275;BME280;19470;49.322;7.218;2023-04-28T08:20:02;98298.03;;;18.93;100.00
18275;BME280;19470;49.322;7.218;2023-04-28T08:22:30;98291.91;;;19.23;100.00
18275;BME280;19470;49.322;7.218;2023-04-28T08:28:28;98283.94;;;19.40;100.00
18275;BME280;19470;49.322;7.218;2023-04-28T08:30:54;98289.63;;;19.70;100.00
18275;BME280;19470;49.322;7.218;2023-04-28T08:33:22;98292.88;;;19.27;100.00
18275;BME280;19470;49.322;7.218;2023-04-28T08:35:49;98290.94;;;19.19;100.00
18275;BME280;19470;49.322;7.218;2023-04-28T08:38:16;98302.63;;;19.85;100.00
18275;BME280;19470;49.322;7.218;2023-04-28T08:40:43;98291.63;;;19.96;100.00
18275;BME280;19470;49.322;7.218;2023-04-28T08:43:09;98306.72;;;19.74;100.00
18275;BME280;19470;49.322;7.218;2023-04-28T08:45:40;98296.56;;;20.20;100.00
18275;BME280;19470;49.322;7.218;2023-04-28T08:48:14;98300.22;;;20.32;100.00
18275;BME280;19470;49.322;7.218;2023-04-28T08:50:47;98300.28;;;19.92;100.00
18275;BME280;19470;49.322;7.218;2023-04-28T08:53:17;98288.19;;;20.30;100.00
18275;BME280;19470;49.322;7.218;2023-04-28T08:55:47;98294.88;;;19.84;100.00
18275;BME280;19470;49.322;7.218;2023-04-28T08:58:14;98300.34;;;20.27;100.00
18275;BME280;19470;49.322;7.218;2023-04-28T09:00:42;98301.38;;;19.83;100.00
18275;BME280;19470;49.322;7.218;2023-04-28T09:03:08;98303.19;;;20.05;100.00
18275;BME280;19470;49.322;7.218;2023-04-28T09:05:35;98304.03;;;20.40;100.00
18275;BME280;19470;49.322;7.218;2023-04-28T09:08:02;98299.25;;;20.11;100.00
18275;BME280;19470;49.322;7.218;2023-04-28T09:10:29;98314.78;;;19.74;100.00
18275;BME280;19470;49.322;7.218;2023-04-28T09:12:55;98308.38;;;19.61;100.00
18275;BME280;19470;49.322;7.218;2023-04-28T09:15:29;98307.91;;;20.08;100.00
18275;BME280;19470;49.322;7.218;2023-04-28T09:17:57;98312.94;;;19.92;100.00
18275;BME280;19470;49.322;7.218;2023-04-28T09:20:25;98310.31;;;20.18;100.00
18275;BME280;19470;49.322;7.218;2023-04-28T09:26:13;98307.84;;;19.82;100.00
18275;BME280;19470;49.322;7.218;2023-04-28T09:28:40;98311.56;;;20.12;100.00
18275;BME280;19470;49.322;7.218;2023-04-28T09:31:21;98323.13;;;20.21;100.00
18275;BME280;19470;49.322;7.218;2023-04-28T09:33:56;98308.13;;;20.20;100.00
18275;BME280;19470;49.322;7.218;2023-04-28T09:36:25;98323.16;;;20.30;100.00
18275;BME280;19470;49.322;7.218;2023-04-28T09:38:56;98323.50;;;19.26;100.00
18275;BME280;19470;49.322;7.218;2023-04-28T09:41:34;98319.31;;;19.65;100.00
18275;BME280;19470;49.322;7.218;2023-04-28T09:44:09;98317.06;;;19.58;100.00
18275;BME280;19470;49.322;7.218;2023-04-28T09:46:35;98318.84;;;19.40;100.00
18275;BME280;19470;49.322;7.218;2023-04-28T09:49:03;98334.69;;;19.20;100.00
18275;BME280;19470;49.322;7.218;2023-04-28T09:51:30;98327.03;;;19.98;100.00
18275;BME280;19470;49.322;7.218;2023-04-28T09:53:59;98318.75;;;19.85;100.00
18275;BME280;19470;49.322;7.218;2023-04-28T09:56:27;98321.41;;;20.25;100.00
18275;BME280;19470;49.322;7.218;2023-04-28T09:58:55;98319.44;;;20.57;100.00
18275;BME280;19470;49.322;7.218;2023-04-28T10:01:23;98317.78;;;20.38;100.00
18275;BME280;19470;49.322;7.218;2023-04-28T10:03:51;98311.13;;;20.27;100.00
18275;BME280;19470;49.322;7.218;2023-04-28T10:06:19;98300.53;;;20.39;100.00
18275;BME280;19470;49.322;7.218;2023-04-28T10:08:47;98294.06;;;21.10;100.00
18275;BME280;19470;49.322;7.218;2023-04-28T10:11:14;98305.66;;;20.58;100.00
18275;BME280;19470;49.322;7.218;2023-04-28T10:13:41;98296.78;;;20.92;100.00
18275;BME280;19470;49.322;7.218;2023-04-28T10:16:09;98298.41;;;22.47;100.00
18275;BME280;19470;49.322;7.218;2023-04-28T10:18:36;98302.13;;;20.40;100.00
18275;BME280;19470;49.322;7.218;2023-04-28T10:21:04;98295.13;;;21.26;100.00
18275;BME280;19470;49.322;7.218;2023-04-28T10:23:46;98308.81;;;21.04;100.00
18275;BME280;19470;49.322;7.218;2023-04-28T10:26:18;98303.88;;;21.06;100.00
18275;BME280;19470;49.322;7.218;2023-04-28T10:28:46;98312.22;;;21.48;100.00
18275;BME280;19470;49.322;7.218;2023-04-28T10:31:15;98296.94;;;21.69;100.00
18275;BME280;19470;49.322;7.218;2023-04-28T10:33:42;98315.78;;;20.70;100.00
18275;BME280;19470;49.322;7.218;2023-04-28T10:36:09;98309.38;;;21.35;100.00
18275;BME280;19470;49.322;7.218;2023-04-28T10:39:07;98301.50;;;22.07;100.00
18275;BME280;19470;49.322;7.218;2023-04-28T10:41:34;98313.16;;;21.52;100.00
18275;BME280;19470;49.322;7.218;2023-04-28T10:47:06;98304.22;;;21.04;100.00
18275;BME280;19470;49.322;7.218;2023-04-28T10:50:04;98303.09;;;20.88;100.00
18275;BME280;19470;49.322;7.218;2023-04-28T10:52:50;98303.25;;;21.17;100.00
18275;BME280;19470;49.322;7.218;2023-04-28T10:55:30;98296.13;;;21.13;100.00
18275;BME280;19470;49.322;7.218;2023-04-28T10:58:31;98297.53;;;20.32;100.00
18275;BME280;19470;49.322;7.218;2023-04-28T11:01:24;98296.16;;;20.61;100.00
18275;BME280;19470;49.322;7.218;2023-04-28T11:03:51;98306.75;;;20.57;100.00
18275;BME280;19470;49.322;7.218;2023-04-28T11:06:19;98288.84;;;21.05;100.00
18275;BME280;19470;49.322;7.218;2023-04-28T11:08:47;98301.78;;;21.37;100.00
18275;BME280;19470;49.322;7.218;2023-04-28T11:11:17;98294.84;;;21.19;100.00
18275;BME280;19470;49.322;7.218;2023-04-28T11:13:44;98293.63;;;20.73;100.00
18275;BME280;19470;49.322;7.218;2023-04-28T11:16:14;98308.34;;;20.50;100.00
18275;BME280;19470;49.322;7.218;2023-04-28T11:18:49;98296.56;;;20.11;100.00
18275;BME280;19470;49.322;7.218;2023-04-28T11:21:16;98309.97;;;21.50;100.00
18275;BME280;19470;49.322;7.218;2023-04-28T11:23:43;98290.78;;;21.60;100.00
18275;BME280;19470;49.322;7.218;2023-04-28T11:26:10;98296.94;;;20.70;100.00
18275;BME280;19470;49.322;7.218;2023-04-28T11:28:47;98299.00;;;20.99;100.00
18275;BME280;19470;49.322;7.218;2023-04-28T11:31:14;98282.56;;;21.48;100.00
18275;BME280;19470;49.322;7.218;2023-04-28T11:33:45;98290.78;;;21.60;100.00
18275;BME280;19470;49.322;7.218;2023-04-28T11:36:22;98306.66;;;22.20;100.00
18275;BME280;19470;49.322;7.218;2023-04-28T11:38:49;98295.63;;;21.37;100.00
18275;BME280;19470;49.322;7.218;2023-04-28T11:41:16;98281.16;;;22.60;100.00
18275;BME280;19470;49.322;7.218;2023-04-28T11:43:42;98290.00;;;23.60;100.00
18275;BME280;19470;49.322;7.218;2023-04-28T11:46:15;98286.47;;;22.89;100.00
18275;BME280;19470;49.322;7.218;2023-04-28T11:48:42;98289.84;;;22.44;100.00
18275;BME280;19470;49.322;7.218;2023-04-28T11:51:08;98289.88;;;22.99;100.00
18275;BME280;19470;49.322;7.218;2023-04-28T11:53:42;98295.59;;;23.30;100.00
18275;BME280;19470;49.322;7.218;2023-04-28T11:56:09;98290.03;;;22.60;100.00
18275;BME280;19470;49.322;7.218;2023-04-28T11:58:37;98294.63;;;21.88;100.00
18275;BME280;19470;49.322;7.218;2023-04-28T12:01:07;98295.41;;;22.39;100.00
18275;BME280;19470;49.322;7.218;2023-04-28T12:03:42;98297.00;;;24.34;100.00
18275;BME280;19470;49.322;7.218;2023-04-28T12:06:09;98288.84;;;24.46;100.00
18275;BME280;19470;49.322;7.218;2023-04-28T12:08:35;98289.78;;;23.53;100.00
18275;BME280;19470;49.322;7.218;2023-04-28T12:11:08;98286.13;;;23.24;100.00
18275;BME280;19470;49.322;7.218;2023-04-28T12:13:35;98295.63;;;25.37;92.81
18275;BME280;19470;49.322;7.218;2023-04-28T12:16:04;98276.72;;;25.72;93.78
18275;BME280;19470;49.322;7.218;2023-04-28T12:18:31;98305.94;;;23.28;100.00
18275;BME280;19470;49.322;7.218;2023-04-28T12:20:59;98274.59;;;23.03;100.00
18275;BME280;19470;49.322;7.218;2023-04-28T12:23:30;98272.38;;;23.17;100.00
18275;BME280;19470;49.322;7.218;2023-04-28T12:25:57;98274.25;;;24.23;100.00
18275;BME280;19470;49.322;7.218;2023-04-28T12:28:35;98269.75;;;23.54;97.61
18275;BME280;19470;49.322;7.218;2023-04-28T12:31:03;98275.59;;;22.98;100.00
18275;BME280;19470;49.322;7.218;2023-04-28T12:33:30;98273.66;;;24.70;91.29
18275;BME280;19470;49.322;7.218;2023-04-28T12:35:59;98289.59;;;24.71;91.63
18275;BME280;19470;49.322;7.218;2023-04-28T12:38:26;98270.69;;;23.82;97.77
18275;BME280;19470;49.322;7.218;2023-04-28T12:40:53;98267.03;;;24.67;94.40
18275;BME280;19470;49.322;7.218;2023-04-28T12:43:19;98261.50;;;24.11;100.00
18275;BME280;19470;49.322;7.218;2023-04-28T12:45:47;98270.63;;;23.45;100.00
18275;BME280;19470;49.322;7.218;2023-04-28T12:48:14;98264.59;;;22.82;100.00
18275;BME280;19470;49.322;7.218;2023-04-28T12:50:40;98272.19;;;23.34;100.00
18275;BME280;19470;49.322;7.218;2023-04-28T12:53:08;98283.59;;;22.74;100.00
18275;BME280;19470;49.322;7.218;2023-04-28T12:55:35;98264.34;;;24.03;100.00
18275;BME280;19470;49.322;7.218;2023-04-28T12:58:03;98269.03;;;22.24;100.00
18275;BME280;19470;49.322;7.218;2023-04-28T13:00:29;98253.03;;;22.61;100.00
18275;BME280;19470;49.322;7.218;2023-04-28T13:02:56;98263.75;;;22.49;100.00
18275;BME280;19470;49.322;7.218;2023-04-28T13:05:23;98254.94;;;22.39;100.00
18275;BME280;19470;49.322;7.218;2023-04-28T13:07:49;98257.91;;;21.96;100.00
18275;BME280;19470;49.322;7.218;2023-04-28T13:10:18;98253.09;;;21.81;100.00
18275;BME280;19470;49.322;7.218;2023-04-28T13:12:45;98256.09;;;21.50;100.00
18275;BME280;19470;49.322;7.218;2023-04-28T13:15:12;98246.75;;;22.90;100.00